CEB915 RPVM-RPVD
Flight info
| Callsign | CEB915 |
|---|---|
| Flight time | 0h 36m |
| Altitude | 12000 |
| Route | EMDEE4P EMDEE DCT GRACI |
| Aircraft | A20N/M-SDE2E3FGHIRWXY/LB1 |
Departure
| Time | 2026-04-22 07:07 |
|---|---|
| Airport | Mactan Cebu International Airport (RPVM) |
Arrival
| Time | 2026-04-22 07:44 |
|---|---|
| Airport | Sibulan Airport (RPVD) |
| Time | Latitude | Longitude | Altitude | Speed | Heading |
|---|---|---|---|---|---|
| 2026-04-22 06:31 | 10.31127 | 123.97748 | 38 ft | 0 kts | 45° |
| 2026-04-22 06:59 | 10.31124 | 123.97746 | 38 ft | 1 kts | 45° |
| 2026-04-22 06:59 | 10.31119 | 123.97740 | 38 ft | 1 kts | 45° |
| 2026-04-22 06:59 | 10.31114 | 123.97735 | 38 ft | 1 kts | 45° |
| 2026-04-22 07:00 | 10.31108 | 123.97729 | 37 ft | 1 kts | 45° |
| 2026-04-22 07:00 | 10.31103 | 123.97724 | 35 ft | 1 kts | 45° |
| 2026-04-22 07:00 | 10.31098 | 123.97718 | 35 ft | 1 kts | 45° |
| 2026-04-22 07:00 | 10.31092 | 123.97713 | 34 ft | 1 kts | 45° |
| 2026-04-22 07:01 | 10.31087 | 123.97707 | 38 ft | 1 kts | 66° |
| 2026-04-22 07:01 | 10.31084 | 123.97699 | 37 ft | 1 kts | 104° |
| 2026-04-22 07:01 | 10.31083 | 123.97700 | 37 ft | 2 kts | 116° |
| 2026-04-22 07:01 | 10.31077 | 123.97708 | 38 ft | 0 kts | 133° |
| 2026-04-22 07:02 | 10.31074 | 123.97711 | 38 ft | 0 kts | 131° |
| 2026-04-22 07:02 | 10.31063 | 123.97724 | 38 ft | 4 kts | 131° |
| 2026-04-22 07:03 | 10.31033 | 123.97754 | 38 ft | 8 kts | 138° |
| 2026-04-22 07:03 | 10.30976 | 123.97755 | 38 ft | 10 kts | 213° |
| 2026-04-22 07:03 | 10.30918 | 123.97701 | 37 ft | 13 kts | 224° |
| 2026-04-22 07:03 | 10.30845 | 123.97628 | 37 ft | 16 kts | 225° |
| 2026-04-22 07:04 | 10.30760 | 123.97544 | 38 ft | 19 kts | 225° |
| 2026-04-22 07:04 | 10.30663 | 123.97446 | 39 ft | 21 kts | 225° |
| 2026-04-22 07:04 | 10.30553 | 123.97336 | 38 ft | 23 kts | 224° |
| 2026-04-22 07:04 | 10.30432 | 123.97214 | 39 ft | 26 kts | 225° |
| 2026-04-22 07:05 | 10.30301 | 123.97081 | 36 ft | 28 kts | 224° |
| 2026-04-22 07:05 | 10.30158 | 123.96938 | 36 ft | 30 kts | 225° |
| 2026-04-22 07:05 | 10.30008 | 123.96787 | 37 ft | 31 kts | 225° |
| 2026-04-22 07:05 | 10.29861 | 123.96727 | 38 ft | 13 kts | 144° |
| 2026-04-22 07:06 | 10.29799 | 123.96793 | 36 ft | 15 kts | 136° |
| 2026-04-22 07:06 | 10.29724 | 123.96881 | 33 ft | 15 kts | 99° |
| 2026-04-22 07:06 | 10.29737 | 123.96918 | 32 ft | 3 kts | 43° |
| 2026-04-22 07:06 | 10.29794 | 123.96978 | 33 ft | 24 kts | 46° |
| 2026-04-22 07:07 | 10.30066 | 123.97251 | 32 ft | 87 kts | 44° |
| 2026-04-22 07:07 | 10.30629 | 123.97815 | 35 ft | 138 kts | 44° |
| 2026-04-22 07:07 | 10.31364 | 123.98567 | 492 ft | 143 kts | 44° |
| 2026-04-22 07:07 | 10.32016 | 123.99272 | 1345 ft | 136 kts | 49° |
| 2026-04-22 07:08 | 10.32496 | 123.99826 | 1944 ft | 133 kts | 51° |
| 2026-04-22 07:08 | 10.33100 | 124.00555 | 2347 ft | 144 kts | 50° |
| 2026-04-22 07:08 | 10.33729 | 124.01419 | 2688 ft | 162 kts | 68° |
| 2026-04-22 07:08 | 10.33866 | 124.02598 | 3111 ft | 181 kts | 102° |
| 2026-04-22 07:09 | 10.33254 | 124.03783 | 3560 ft | 202 kts | 122° |
| 2026-04-22 07:09 | 10.32382 | 124.05013 | 3968 ft | 227 kts | 125° |
| 2026-04-22 07:09 | 10.31391 | 124.06366 | 4445 ft | 250 kts | 126° |
| 2026-04-22 07:09 | 10.30317 | 124.07835 | 5033 ft | 265 kts | 125° |
| 2026-04-22 07:10 | 10.29216 | 124.09355 | 5928 ft | 269 kts | 125° |
| 2026-04-22 07:10 | 10.28104 | 124.10903 | 6749 ft | 274 kts | 125° |
| 2026-04-22 07:10 | 10.26973 | 124.12487 | 7531 ft | 280 kts | 126° |
| 2026-04-22 07:10 | 10.25822 | 124.14103 | 8320 ft | 285 kts | 126° |
| 2026-04-22 07:11 | 10.24648 | 124.15751 | 9117 ft | 290 kts | 126° |
| 2026-04-22 07:11 | 10.23452 | 124.17430 | 9882 ft | 296 kts | 126° |
| 2026-04-22 07:11 | 10.22228 | 124.19148 | 10417 ft | 310 kts | 126° |
| 2026-04-22 07:11 | 10.20772 | 124.20862 | 10623 ft | 332 kts | 141° |
| 2026-04-22 07:12 | 10.18721 | 124.22044 | 10937 ft | 347 kts | 163° |
| 2026-04-22 07:12 | 10.16329 | 124.22420 | 11324 ft | 350 kts | 182° |
| 2026-04-22 07:12 | 10.13936 | 124.22079 | 11434 ft | 348 kts | 191° |
| 2026-04-22 07:12 | 10.11562 | 124.21584 | 11533 ft | 349 kts | 192° |
| 2026-04-22 07:13 | 10.09190 | 124.21072 | 11632 ft | 348 kts | 192° |
| 2026-04-22 07:13 | 10.06823 | 124.20571 | 11733 ft | 348 kts | 192° |
| 2026-04-22 07:13 | 10.04449 | 124.20081 | 11834 ft | 349 kts | 192° |
| 2026-04-22 07:13 | 10.02063 | 124.19597 | 11841 ft | 350 kts | 192° |
| 2026-04-22 07:14 | 9.99679 | 124.19117 | 11840 ft | 349 kts | 192° |
| 2026-04-22 07:14 | 9.97293 | 124.18638 | 11840 ft | 349 kts | 192° |
| 2026-04-22 07:14 | 9.94911 | 124.18161 | 11838 ft | 349 kts | 192° |
| 2026-04-22 07:14 | 9.92532 | 124.17684 | 11842 ft | 349 kts | 192° |
| 2026-04-22 07:15 | 9.90147 | 124.17206 | 11838 ft | 349 kts | 192° |
| 2026-04-22 07:15 | 9.87769 | 124.16729 | 11840 ft | 348 kts | 192° |
| 2026-04-22 07:15 | 9.85387 | 124.16252 | 11838 ft | 349 kts | 191° |
| 2026-04-22 07:15 | 9.83008 | 124.15749 | 11837 ft | 349 kts | 195° |
| 2026-04-22 07:16 | 9.80748 | 124.14876 | 11840 ft | 348 kts | 207° |
| 2026-04-22 07:16 | 9.78736 | 124.13575 | 11842 ft | 349 kts | 218° |
| 2026-04-22 07:16 | 9.76875 | 124.11998 | 11842 ft | 348 kts | 220° |
| 2026-04-22 07:16 | 9.75016 | 124.10425 | 11841 ft | 348 kts | 219° |
| 2026-04-22 07:17 | 9.73152 | 124.08857 | 11840 ft | 347 kts | 219° |
| 2026-04-22 07:17 | 9.71291 | 124.07296 | 11840 ft | 348 kts | 219° |
| 2026-04-22 07:17 | 9.69424 | 124.05729 | 11839 ft | 349 kts | 219° |
| 2026-04-22 07:17 | 9.67558 | 124.04164 | 11837 ft | 348 kts | 219° |
| 2026-04-22 07:18 | 9.65694 | 124.02599 | 11836 ft | 348 kts | 219° |
| 2026-04-22 07:18 | 9.63833 | 124.01038 | 11836 ft | 348 kts | 219° |
| 2026-04-22 07:18 | 9.61965 | 123.99471 | 11834 ft | 348 kts | 219° |
| 2026-04-22 07:18 | 9.60107 | 123.97912 | 11837 ft | 347 kts | 219° |
| 2026-04-22 07:19 | 9.58243 | 123.96349 | 11834 ft | 348 kts | 219° |
| 2026-04-22 07:19 | 9.56378 | 123.94785 | 11835 ft | 348 kts | 219° |
| 2026-04-22 07:19 | 9.54514 | 123.93221 | 11791 ft | 349 kts | 219° |
| 2026-04-22 07:19 | 9.53271 | 123.92180 | 11648 ft | 351 kts | 219° |
| 2026-04-22 07:20 | 9.51455 | 123.90657 | 11305 ft | 351 kts | 219° |
| 2026-04-22 07:20 | 9.49561 | 123.89069 | 10591 ft | 357 kts | 219° |
| 2026-04-22 07:20 | 9.47647 | 123.87465 | 10141 ft | 353 kts | 219° |
| 2026-04-22 07:20 | 9.45792 | 123.85910 | 10003 ft | 338 kts | 219° |
| 2026-04-22 07:21 | 9.44032 | 123.84435 | 9821 ft | 319 kts | 219° |
| 2026-04-22 07:21 | 9.42374 | 123.83046 | 9603 ft | 301 kts | 219° |
| 2026-04-22 07:21 | 9.40773 | 123.81705 | 9066 ft | 298 kts | 219° |
| 2026-04-22 07:21 | 9.39177 | 123.80369 | 8615 ft | 298 kts | 219° |
| 2026-04-22 07:22 | 9.37626 | 123.78975 | 8143 ft | 299 kts | 229° |
| 2026-04-22 07:22 | 9.36637 | 123.77131 | 7673 ft | 301 kts | 254° |
| 2026-04-22 07:22 | 9.36393 | 123.75026 | 7195 ft | 303 kts | 269° |
| 2026-04-22 07:22 | 9.36393 | 123.72893 | 6846 ft | 300 kts | 271° |
| 2026-04-22 07:23 | 9.36431 | 123.70800 | 6507 ft | 295 kts | 271° |
| 2026-04-22 07:23 | 9.36454 | 123.68727 | 5892 ft | 295 kts | 271° |
| 2026-04-22 07:23 | 9.36453 | 123.66680 | 5344 ft | 293 kts | 270° |
| 2026-04-22 07:23 | 9.36436 | 123.64618 | 4817 ft | 292 kts | 270° |
| 2026-04-22 07:24 | 9.36410 | 123.62552 | 4337 ft | 295 kts | 270° |
| 2026-04-22 07:24 | 9.36342 | 123.60488 | 4007 ft | 289 kts | 264° |
| 2026-04-22 07:24 | 9.35918 | 123.58524 | 3552 ft | 284 kts | 251° |
| 2026-04-22 07:24 | 9.35174 | 123.56675 | 3006 ft | 283 kts | 247° |
| 2026-04-22 07:25 | 9.34416 | 123.54850 | 2471 ft | 280 kts | 248° |
| 2026-04-22 07:25 | 9.33688 | 123.53073 | 2323 ft | 270 kts | 248° |
| 2026-04-22 07:25 | 9.32970 | 123.51311 | 2243 ft | 269 kts | 248° |
| 2026-04-22 07:25 | 9.32450 | 123.49549 | 2150 ft | 255 kts | 263° |
| 2026-04-22 07:26 | 9.32412 | 123.47824 | 2036 ft | 235 kts | 276° |
| 2026-04-22 07:26 | 9.32520 | 123.46243 | 1997 ft | 214 kts | 275° |
| 2026-04-22 07:26 | 9.32602 | 123.44843 | 2002 ft | 183 kts | 275° |
| 2026-04-22 07:26 | 9.32664 | 123.43663 | 1999 ft | 153 kts | 275° |
| 2026-04-22 07:27 | 9.32702 | 123.42932 | 1998 ft | 139 kts | 276° |
| 2026-04-22 07:27 | 9.32758 | 123.41951 | 2004 ft | 148 kts | 276° |
| 2026-04-22 07:27 | 9.32795 | 123.41322 | 2003 ft | 148 kts | 276° |
| 2026-04-22 07:27 | 9.32854 | 123.40298 | 1985 ft | 142 kts | 276° |
| 2026-04-22 07:28 | 9.32964 | 123.38329 | 1461 ft | 141 kts | 277° |
| 2026-04-22 07:28 | 9.33016 | 123.37434 | 1178 ft | 139 kts | 276° |
| 2026-04-22 07:28 | 9.33072 | 123.36456 | 855 ft | 142 kts | 277° |
| 2026-04-22 07:29 | 9.33123 | 123.35475 | 584 ft | 140 kts | 278° |
| 2026-04-22 07:29 | 9.33163 | 123.34541 | 570 ft | 121 kts | 275° |
| 2026-04-22 07:29 | 9.33185 | 123.33688 | 312 ft | 143 kts | 275° |
| 2026-04-22 07:29 | 9.33258 | 123.32617 | 570 ft | 174 kts | 277° |
| 2026-04-22 07:30 | 9.33336 | 123.31283 | 452 ft | 191 kts | 276° |
| 2026-04-22 07:30 | 9.33453 | 123.29963 | 1234 ft | 183 kts | 288° |
| 2026-04-22 07:30 | 9.34156 | 123.28926 | 1992 ft | 193 kts | 324° |
| 2026-04-22 07:30 | 9.35446 | 123.28428 | 2315 ft | 203 kts | 0° |
| 2026-04-22 07:31 | 9.36729 | 123.28762 | 2391 ft | 181 kts | 38° |
| 2026-04-22 07:31 | 9.37413 | 123.29751 | 2497 ft | 175 kts | 72° |
| 2026-04-22 07:31 | 9.37792 | 123.30950 | 2613 ft | 180 kts | 70° |
| 2026-04-22 07:31 | 9.38248 | 123.32127 | 2709 ft | 178 kts | 67° |
| 2026-04-22 07:32 | 9.38749 | 123.33271 | 2826 ft | 180 kts | 65° |
| 2026-04-22 07:32 | 9.39285 | 123.34426 | 2912 ft | 182 kts | 65° |
| 2026-04-22 07:32 | 9.39825 | 123.35569 | 3009 ft | 180 kts | 64° |
| 2026-04-22 07:32 | 9.40371 | 123.36723 | 3006 ft | 182 kts | 64° |
| 2026-04-22 07:33 | 9.40910 | 123.37866 | 2992 ft | 179 kts | 64° |
| 2026-04-22 07:33 | 9.41451 | 123.39017 | 3010 ft | 184 kts | 64° |
| 2026-04-22 07:33 | 9.41999 | 123.40182 | 3004 ft | 182 kts | 64° |
| 2026-04-22 07:33 | 9.42543 | 123.41343 | 3008 ft | 183 kts | 65° |
| 2026-04-22 07:34 | 9.43089 | 123.42507 | 3005 ft | 183 kts | 64° |
| 2026-04-22 07:34 | 9.43633 | 123.43666 | 3005 ft | 183 kts | 65° |
| 2026-04-22 07:34 | 9.44178 | 123.44830 | 2998 ft | 183 kts | 65° |
| 2026-04-22 07:34 | 9.44722 | 123.45994 | 3001 ft | 183 kts | 66° |
| 2026-04-22 07:35 | 9.44906 | 123.47245 | 3004 ft | 185 kts | 100° |
| 2026-04-22 07:35 | 9.44315 | 123.48407 | 3011 ft | 189 kts | 123° |
| 2026-04-22 07:35 | 9.43544 | 123.49488 | 2994 ft | 187 kts | 123° |
| 2026-04-22 07:35 | 9.42779 | 123.50553 | 3002 ft | 189 kts | 123° |
| 2026-04-22 07:36 | 9.42020 | 123.51621 | 2998 ft | 185 kts | 123° |
| 2026-04-22 07:36 | 9.41265 | 123.52688 | 3007 ft | 188 kts | 123° |
| 2026-04-22 07:36 | 9.40510 | 123.53757 | 2995 ft | 187 kts | 123° |
| 2026-04-22 07:36 | 9.39749 | 123.54837 | 2991 ft | 188 kts | 123° |
| 2026-04-22 07:37 | 9.38999 | 123.55902 | 2994 ft | 185 kts | 123° |
| 2026-04-22 07:37 | 9.38239 | 123.56966 | 2992 ft | 188 kts | 128° |
| 2026-04-22 07:37 | 9.37125 | 123.57646 | 2998 ft | 194 kts | 167° |
| 2026-04-22 07:37 | 9.35797 | 123.57475 | 2993 ft | 201 kts | 206° |
| 2026-04-22 07:38 | 9.34758 | 123.56457 | 3002 ft | 216 kts | 239° |
| 2026-04-22 07:38 | 9.34177 | 123.55115 | 2989 ft | 201 kts | 252° |
| 2026-04-22 07:38 | 9.33760 | 123.53768 | 2994 ft | 200 kts | 253° |
| 2026-04-22 07:38 | 9.33336 | 123.52425 | 3003 ft | 202 kts | 252° |
| 2026-04-22 07:39 | 9.32863 | 123.51085 | 3001 ft | 201 kts | 250° |
| 2026-04-22 07:39 | 9.32425 | 123.49754 | 2950 ft | 198 kts | 260° |
| 2026-04-22 07:39 | 9.32389 | 123.48381 | 2675 ft | 192 kts | 276° |
| 2026-04-22 07:39 | 9.32478 | 123.47069 | 2372 ft | 179 kts | 276° |
| 2026-04-22 07:40 | 9.32554 | 123.45810 | 1769 ft | 180 kts | 275° |
| 2026-04-22 07:40 | 9.32631 | 123.44498 | 1405 ft | 188 kts | 275° |
| 2026-04-22 07:40 | 9.32707 | 123.43160 | 1347 ft | 191 kts | 275° |
| 2026-04-22 07:40 | 9.32774 | 123.41893 | 1269 ft | 165 kts | 275° |
| 2026-04-22 07:41 | 9.32828 | 123.40818 | 1193 ft | 143 kts | 275° |
| 2026-04-22 07:41 | 9.32880 | 123.39818 | 1080 ft | 143 kts | 277° |
| 2026-04-22 07:41 | 9.32937 | 123.38830 | 984 ft | 139 kts | 276° |
| 2026-04-22 07:41 | 9.32992 | 123.37844 | 850 ft | 142 kts | 277° |
| 2026-04-22 07:42 | 9.33048 | 123.36861 | 795 ft | 138 kts | 275° |
| 2026-04-22 07:42 | 9.33078 | 123.35875 | 888 ft | 144 kts | 275° |
| 2026-04-22 07:42 | 9.33098 | 123.34862 | 931 ft | 144 kts | 276° |
| 2026-04-22 07:42 | 9.33175 | 123.33852 | 645 ft | 146 kts | 277° |
| 2026-04-22 07:43 | 9.33241 | 123.32847 | 437 ft | 141 kts | 277° |
| 2026-04-22 07:43 | 9.33297 | 123.31861 | 207 ft | 139 kts | 278° |
| 2026-04-22 07:43 | 9.33387 | 123.30904 | 63 ft | 140 kts | 272° |
| 2026-04-22 07:43 | 9.33432 | 123.30010 | 45 ft | 85 kts | 274° |
| 2026-04-22 07:44 | 9.33427 | 123.29731 | 49 ft | 18 kts | 236° |
| 2026-04-22 07:44 | 9.33387 | 123.29690 | 50 ft | 7 kts | 226° |
| 2026-04-22 07:44 | 9.33384 | 123.29687 | 50 ft | 0 kts | 226° |
| 2026-04-22 07:44 | 9.33378 | 123.29686 | 47 ft | 2 kts | 195° |
| 2026-04-22 07:45 | 9.33347 | 123.29700 | 50 ft | 12 kts | 152° |
| 2026-04-22 07:45 | 9.33318 | 123.29718 | 50 ft | 2 kts | 149° |